createdAt,value
2018-12-31T00:05:46.175Z,18.80
2018-12-31T00:08:12.331Z,21.20
2018-12-31T00:10:38.491Z,19.90
2018-12-31T00:13:04.796Z,21.17
2018-12-31T00:15:30.956Z,21.27
2018-12-31T00:17:57.109Z,23.10
2018-12-31T00:20:23.296Z,24.37
2018-12-31T00:22:49.556Z,18.93
2018-12-31T00:25:15.716Z,20.43
2018-12-31T00:27:41.903Z,17.93
2018-12-31T00:30:08.150Z,22.80
2018-12-31T00:32:34.304Z,18.83
2018-12-31T00:35:00.709Z,20.67
2018-12-31T00:37:26.862Z,18.60
2018-12-31T00:39:53.025Z,24.50
2018-12-31T00:42:19.218Z,22.00
2018-12-31T00:44:45.383Z,18.33
2018-12-31T00:47:11.526Z,18.63
2018-12-31T00:49:37.710Z,20.47
2018-12-31T00:52:03.872Z,19.53
2018-12-31T00:54:30.132Z,19.03
2018-12-31T00:56:56.326Z,19.03
2018-12-31T00:59:22.484Z,17.30
2018-12-31T01:01:48.631Z,15.57
2018-12-31T01:04:14.831Z,17.70
2018-12-31T01:06:46.847Z,19.78
2018-12-31T01:09:12.991Z,18.93
2018-12-31T01:11:39.182Z,20.00
2018-12-31T01:14:05.348Z,20.87
2018-12-31T01:16:31.498Z,19.73
2018-12-31T01:18:57.693Z,20.33
2018-12-31T01:21:23.851Z,18.57
2018-12-31T01:23:50.054Z,18.10
2018-12-31T01:26:16.344Z,21.97
2018-12-31T01:28:42.496Z,19.53
2018-12-31T01:31:08.643Z,18.70
2018-12-31T01:33:34.823Z,18.47
2018-12-31T01:36:01.081Z,21.97
2018-12-31T01:38:27.338Z,18.67
2018-12-31T01:43:25.787Z,22.10
2018-12-31T01:45:51.935Z,18.83
2018-12-31T01:48:18.119Z,21.23
2018-12-31T01:50:44.278Z,22.00
2018-12-31T01:53:10.437Z,25.13
2018-12-31T01:55:36.620Z,21.73
2018-12-31T02:00:50.458Z,18.43
2018-12-31T02:03:16.615Z,22.70
2018-12-31T02:05:42.764Z,21.07
2018-12-31T02:08:09.023Z,23.37
2018-12-31T02:13:42.643Z,26.90
2018-12-31T02:16:08.895Z,24.60
2018-12-31T02:18:35.054Z,19.50
2018-12-31T02:21:01.246Z,19.87
2018-12-31T02:23:27.532Z,19.10
2018-12-31T02:25:53.651Z,23.27
2018-12-31T02:28:19.836Z,21.53
2018-12-31T02:30:45.995Z,24.50
2018-12-31T02:33:12.142Z,23.37
2018-12-31T02:35:38.332Z,25.40
2018-12-31T02:38:04.493Z,22.67
2018-12-31T02:40:30.648Z,25.67
2018-12-31T02:42:56.843Z,23.97
2018-12-31T02:45:23.000Z,23.47
2018-12-31T02:47:49.164Z,25.43
2018-12-31T02:50:15.445Z,27.07
2018-12-31T02:52:41.600Z,20.47
2018-12-31T02:55:07.770Z,23.80
2018-12-31T02:57:33.947Z,17.57
2018-12-31T03:00:00.279Z,22.43
2018-12-31T03:02:28.147Z,21.33
2018-12-31T03:04:54.347Z,25.73
2018-12-31T03:07:20.500Z,23.20
2018-12-31T03:09:46.657Z,20.63
2018-12-31T03:12:12.843Z,19.23
2018-12-31T03:14:39.000Z,20.50
2018-12-31T03:17:05.153Z,18.37
2018-12-31T03:19:31.345Z,18.87
2018-12-31T03:21:57.504Z,20.63
2018-12-31T03:24:23.659Z,30.97
2018-12-31T03:26:49.901Z,33.63
2018-12-31T03:29:16.053Z,28.27
2018-12-31T03:31:42.202Z,32.80
2018-12-31T03:34:08.491Z,41.27
2018-12-31T03:36:34.649Z,36.63
2018-12-31T03:39:00.805Z,43.17
2018-12-31T03:41:26.996Z,37.83
2018-12-31T03:43:53.156Z,34.57
2018-12-31T03:46:19.306Z,40.90
2018-12-31T03:48:45.486Z,41.40
2018-12-31T03:51:11.751Z,24.23
2018-12-31T03:53:37.903Z,22.00
2018-12-31T03:56:04.195Z,16.37
2018-12-31T03:58:30.453Z,15.20
2018-12-31T04:00:56.610Z,14.50
2018-12-31T04:03:22.797Z,17.17
2018-12-31T04:05:48.953Z,17.97
2018-12-31T04:08:15.103Z,16.03
2018-12-31T04:10:41.295Z,16.13
2018-12-31T04:13:07.453Z,16.20
2018-12-31T04:15:33.606Z,17.63
2018-12-31T04:17:59.797Z,17.83
2018-12-31T04:20:25.951Z,17.50
2018-12-31T04:22:52.102Z,16.57
2018-12-31T04:25:18.289Z,16.70
2018-12-31T04:27:57.089Z,18.03
2018-12-31T04:30:23.305Z,23.87
2018-12-31T04:32:49.526Z,25.27
2018-12-31T04:35:15.686Z,22.27
2018-12-31T04:37:41.876Z,38.00
2018-12-31T04:40:08.025Z,49.17
2018-12-31T04:42:34.392Z,44.80
2018-12-31T04:45:00.583Z,47.23
2018-12-31T04:47:26.742Z,42.10
2018-12-31T04:49:53.098Z,43.53
2018-12-31T04:52:19.450Z,46.40
2018-12-31T04:54:45.746Z,49.80
2018-12-31T04:57:11.903Z,43.10
2018-12-31T04:59:38.097Z,50.43
2018-12-31T05:02:04.240Z,41.80
2018-12-31T05:04:30.385Z,43.93
2018-12-31T05:06:56.574Z,40.93
2018-12-31T05:09:22.734Z,51.87
2018-12-31T05:11:49.937Z,50.20
2018-12-31T05:16:56.024Z,128.27
2018-12-31T05:19:22.180Z,76.83
2018-12-31T05:21:48.444Z,52.07
2018-12-31T05:24:14.646Z,54.40
2018-12-31T05:26:40.794Z,46.20
2018-12-31T05:29:07.049Z,51.47
2018-12-31T05:31:33.234Z,59.80
2018-12-31T05:33:59.387Z,54.77
2018-12-31T05:36:25.545Z,67.27
2018-12-31T05:38:51.888Z,60.13
2018-12-31T05:41:18.038Z,61.60
2018-12-31T05:43:44.199Z,72.13
2018-12-31T05:46:10.400Z,59.23
2018-12-31T05:48:36.557Z,74.70
2018-12-31T05:51:02.839Z,74.90
2018-12-31T05:53:29.012Z,77.07
2018-12-31T05:55:55.168Z,79.20
2018-12-31T05:58:21.329Z,78.07
2018-12-31T06:00:47.527Z,66.10
2018-12-31T06:03:13.678Z,62.70
2018-12-31T06:05:39.831Z,55.60
2018-12-31T06:08:06.008Z,74.87
2018-12-31T06:10:32.172Z,69.40
2018-12-31T06:12:58.323Z,61.77
2018-12-31T06:15:24.505Z,67.40
2018-12-31T06:17:50.659Z,62.33
2018-12-31T06:20:16.816Z,50.90
2018-12-31T06:22:43.025Z,59.47
2018-12-31T06:25:09.293Z,52.23
2018-12-31T06:27:35.449Z,58.67
2018-12-31T06:30:02.267Z,63.80
2018-12-31T06:32:29.963Z,65.40
2018-12-31T06:34:56.144Z,56.37
2018-12-31T06:37:22.339Z,69.43
2018-12-31T06:39:48.490Z,49.60
2018-12-31T06:42:14.650Z,47.13
2018-12-31T06:44:40.897Z,54.80
2018-12-31T06:47:07.061Z,57.73
2018-12-31T06:49:33.217Z,50.43
2018-12-31T06:51:59.408Z,60.87
2018-12-31T06:54:25.667Z,55.47
2018-12-31T06:56:51.820Z,47.60
2018-12-31T06:59:18.004Z,45.87
2018-12-31T07:01:44.150Z,48.67
2018-12-31T07:04:10.409Z,47.53
2018-12-31T07:06:36.599Z,48.43
2018-12-31T07:10:00.044Z,44.93
2018-12-31T07:12:26.232Z,71.07
2018-12-31T07:14:52.392Z,49.80
2018-12-31T07:17:18.546Z,42.10
2018-12-31T07:19:44.733Z,41.03
2018-12-31T07:22:10.996Z,44.07
2018-12-31T07:24:37.151Z,46.37
2018-12-31T07:27:03.350Z,32.83
2018-12-31T07:29:29.507Z,38.77
2018-12-31T07:31:55.725Z,42.30
2018-12-31T07:34:22.010Z,35.03
2018-12-31T07:36:48.170Z,34.67
2018-12-31T07:39:14.333Z,35.33
2018-12-31T07:41:40.525Z,30.43
2018-12-31T07:44:06.679Z,27.30
2018-12-31T07:46:32.832Z,25.73
2018-12-31T07:48:59.031Z,30.47
2018-12-31T07:51:25.189Z,35.37
2018-12-31T07:53:51.343Z,36.80
2018-12-31T07:56:17.528Z,33.90
2018-12-31T07:58:43.689Z,28.27
2018-12-31T08:01:09.841Z,35.93
2018-12-31T08:03:36.032Z,32.97
2018-12-31T08:06:02.374Z,32.90
2018-12-31T08:08:28.676Z,33.47
2018-12-31T08:10:54.868Z,26.40
2018-12-31T08:13:21.156Z,29.57
2018-12-31T08:18:39.827Z,77.23
2018-12-31T08:21:06.117Z,63.40
2018-12-31T08:23:32.264Z,70.57
2018-12-31T08:25:58.573Z,90.07
2018-12-31T08:28:24.742Z,114.47
2018-12-31T08:30:51.063Z,133.33
2018-12-31T08:33:17.316Z,122.47
2018-12-31T08:35:43.497Z,131.07
2018-12-31T08:38:09.644Z,104.07
2018-12-31T08:40:35.819Z,74.23
2018-12-31T08:43:02.126Z,66.50
2018-12-31T08:45:28.284Z,71.53
2018-12-31T08:47:54.582Z,64.53
2018-12-31T08:50:20.736Z,69.77
2018-12-31T08:52:46.887Z,54.17
2018-12-31T08:55:13.186Z,59.50
2018-12-31T08:57:39.323Z,57.20
2018-12-31T09:00:46.925Z,48.67
2018-12-31T09:03:13.079Z,43.57
2018-12-31T09:05:39.231Z,43.70
2018-12-31T09:08:05.428Z,40.60
2018-12-31T09:10:31.597Z,38.03
2018-12-31T09:13:17.757Z,64.87
2018-12-31T09:15:43.985Z,63.57
2018-12-31T09:18:10.147Z,63.00
2018-12-31T09:20:36.452Z,56.93
2018-12-31T09:23:02.735Z,38.50
2018-12-31T09:25:28.895Z,57.80
2018-12-31T09:27:55.102Z,36.70
2018-12-31T09:30:21.359Z,16.43
2018-12-31T09:32:47.518Z,27.00
2018-12-31T09:35:13.773Z,25.50
2018-12-31T09:37:39.933Z,20.53
2018-12-31T09:40:06.098Z,18.97
2018-12-31T09:42:32.288Z,20.30
2018-12-31T09:44:58.440Z,24.80
2018-12-31T09:47:24.592Z,22.37
2018-12-31T09:49:50.788Z,22.20
2018-12-31T09:52:16.944Z,12.00
2018-12-31T09:54:42.995Z,22.73
2018-12-31T09:57:09.202Z,22.33
2018-12-31T09:59:35.356Z,25.57
2018-12-31T10:02:01.511Z,21.27
2018-12-31T10:04:27.688Z,28.57
2018-12-31T10:06:53.841Z,30.50
2018-12-31T10:09:20.100Z,16.10
2018-12-31T10:11:46.419Z,17.70
2018-12-31T10:14:12.578Z,18.10
2018-12-31T10:16:38.855Z,18.33
2018-12-31T10:19:05.036Z,19.53
2018-12-31T10:21:31.213Z,21.33
2018-12-31T10:23:57.381Z,23.80
2018-12-31T10:26:23.574Z,20.03
2018-12-31T10:28:49.736Z,30.90
2018-12-31T10:31:15.903Z,24.73
2018-12-31T10:33:42.205Z,18.50
2018-12-31T10:36:09.316Z,13.77
2018-12-31T10:38:35.603Z,21.17
2018-12-31T10:41:01.774Z,16.60
2018-12-31T10:43:27.938Z,27.33
2018-12-31T10:45:54.099Z,9.37
2018-12-31T10:48:20.298Z,10.43
2018-12-31T10:50:46.457Z,16.00
2018-12-31T10:53:12.615Z,12.93
2018-12-31T10:55:38.930Z,12.77
2018-12-31T10:58:05.086Z,14.57
2018-12-31T11:00:31.251Z,14.20
2018-12-31T11:02:57.442Z,19.67
2018-12-31T11:05:23.699Z,12.50
2018-12-31T11:07:49.862Z,17.37
2018-12-31T11:10:16.193Z,19.43
2018-12-31T11:12:42.489Z,17.90
2018-12-31T11:15:08.990Z,17.50
2018-12-31T11:17:35.203Z,22.00
2018-12-31T11:20:01.362Z,18.83
2018-12-31T11:22:27.624Z,23.77
2018-12-31T11:24:53.808Z,22.67
2018-12-31T11:27:19.968Z,19.70
2018-12-31T11:29:46.127Z,22.80
2018-12-31T11:32:12.315Z,15.10
2018-12-31T11:34:38.476Z,25.50
2018-12-31T11:37:04.843Z,30.20
2018-12-31T11:39:31.041Z,21.20
2018-12-31T11:41:58.135Z,19.23
2018-12-31T11:44:25.252Z,20.33
2018-12-31T11:46:51.461Z,20.20
2018-12-31T11:49:17.732Z,19.07
2018-12-31T11:51:43.892Z,15.43
2018-12-31T11:54:10.083Z,21.30
2018-12-31T11:56:36.233Z,21.23
2018-12-31T11:59:02.495Z,17.40
2018-12-31T12:01:28.802Z,21.43
2018-12-31T12:03:54.963Z,17.93
2018-12-31T12:06:21.239Z,24.03
2018-12-31T12:08:47.539Z,18.73
2018-12-31T12:11:13.704Z,22.63
2018-12-31T12:13:39.864Z,19.70
2018-12-31T12:16:06.204Z,19.87
2018-12-31T12:18:32.356Z,17.83
2018-12-31T12:20:58.523Z,16.37
2018-12-31T12:23:24.763Z,12.30
2018-12-31T12:25:52.835Z,16.23
2018-12-31T12:28:19.008Z,16.37
2018-12-31T12:30:45.291Z,23.63
2018-12-31T12:33:11.452Z,18.03
2018-12-31T12:35:37.715Z,20.50
2018-12-31T12:38:04.021Z,19.03
2018-12-31T12:40:32.078Z,15.90
2018-12-31T12:42:58.236Z,18.00
2018-12-31T12:45:24.702Z,14.27
2018-12-31T12:47:50.864Z,15.67
2018-12-31T12:50:17.029Z,13.87
2018-12-31T12:52:43.333Z,16.60
2018-12-31T12:55:11.394Z,15.93
2018-12-31T12:57:37.555Z,12.30
2018-12-31T13:00:45.170Z,14.97
2018-12-31T13:03:11.337Z,19.50
2018-12-31T13:05:37.502Z,16.77
2018-12-31T13:08:03.796Z,21.93
2018-12-31T13:10:29.967Z,71.63
2018-12-31T13:12:56.134Z,25.53
2018-12-31T13:15:29.684Z,26.43
2018-12-31T13:17:55.839Z,26.43
2018-12-31T13:20:21.998Z,59.70
2018-12-31T13:22:48.292Z,25.23
2018-12-31T13:25:14.459Z,18.43
2018-12-31T13:27:40.621Z,12.13
2018-12-31T13:30:07.115Z,17.13
2018-12-31T13:32:33.382Z,34.03
2018-12-31T13:34:59.530Z,18.30
2018-12-31T13:37:25.723Z,23.67
2018-12-31T13:39:51.890Z,26.47
2018-12-31T13:42:18.051Z,23.17
2018-12-31T13:44:44.321Z,22.73
2018-12-31T13:47:10.488Z,21.47
2018-12-31T13:49:36.792Z,15.73
2018-12-31T13:52:03.104Z,22.73
2018-12-31T13:54:29.270Z,19.47
2018-12-31T13:56:55.440Z,13.13
2018-12-31T13:59:21.764Z,17.27
2018-12-31T14:01:48.272Z,19.93
2018-12-31T14:04:14.582Z,10.57
2018-12-31T14:06:40.783Z,15.30
2018-12-31T14:09:06.960Z,43.57
2018-12-31T14:11:53.017Z,14.97
2018-12-31T14:14:19.172Z,14.93
2018-12-31T14:16:45.339Z,47.70
2018-12-31T14:19:11.539Z,22.23
2018-12-31T14:21:37.850Z,18.60
2018-12-31T14:24:04.188Z,17.07
2018-12-31T14:26:52.019Z,30.20
2018-12-31T14:29:18.180Z,29.23
2018-12-31T14:31:44.432Z,33.93
2018-12-31T14:34:10.817Z,59.17
2018-12-31T14:36:37.008Z,29.50
2018-12-31T14:39:44.707Z,31.60
2018-12-31T14:42:10.966Z,22.07
2018-12-31T14:44:37.315Z,38.70
2018-12-31T14:47:03.517Z,50.17
2018-12-31T14:49:29.679Z,51.50
2018-12-31T14:51:55.833Z,45.97
2018-12-31T14:54:22.048Z,36.97
2018-12-31T14:56:48.203Z,54.37
2018-12-31T14:59:36.045Z,48.70
2018-12-31T15:02:02.233Z,33.20
2018-12-31T15:04:28.383Z,44.07
2018-12-31T15:06:54.580Z,65.53
2018-12-31T15:09:20.735Z,33.97
2018-12-31T15:11:46.885Z,30.97
2018-12-31T15:14:13.178Z,87.50
2018-12-31T15:16:39.447Z,71.93
2018-12-31T15:19:05.599Z,72.90
2018-12-31T15:21:31.785Z,150.17
2018-12-31T15:23:58.057Z,146.23
2018-12-31T15:26:24.317Z,147.37
2018-12-31T15:28:50.500Z,178.23
2018-12-31T15:31:16.652Z,130.53
2018-12-31T15:33:42.805Z,107.33
2018-12-31T15:36:08.988Z,104.33
2018-12-31T15:38:35.138Z,109.40
2018-12-31T15:41:03.322Z,115.57
2018-12-31T15:43:29.544Z,122.10
2018-12-31T15:45:55.704Z,110.93
2018-12-31T15:48:21.859Z,105.90
2018-12-31T15:50:48.054Z,99.23
2018-12-31T15:53:14.314Z,124.13
2018-12-31T15:55:40.471Z,144.50
2018-12-31T15:58:06.659Z,133.10
2018-12-31T16:00:32.811Z,199.27
2018-12-31T16:02:58.967Z,418.73
2018-12-31T16:05:25.161Z,201.63
2018-12-31T16:07:51.219Z,206.47
2018-12-31T16:10:17.475Z,168.73
2018-12-31T16:12:45.675Z,167.53
2018-12-31T16:15:11.833Z,225.77
2018-12-31T16:17:38.034Z,234.77
2018-12-31T16:20:45.625Z,161.30
2018-12-31T16:23:11.793Z,175.57
2018-12-31T16:25:38.071Z,185.93
2018-12-31T16:28:04.287Z,180.43
2018-12-31T16:30:30.443Z,161.67
2018-12-31T16:32:56.602Z,202.80
2018-12-31T16:35:22.784Z,279.77
2018-12-31T16:37:48.937Z,219.00
2018-12-31T16:40:15.100Z,247.03
2018-12-31T16:42:41.291Z,302.30
2018-12-31T16:45:07.621Z,317.47
2018-12-31T16:47:33.757Z,306.70
2018-12-31T16:50:00.167Z,182.20
2018-12-31T16:52:26.310Z,190.77
2018-12-31T16:54:52.465Z,176.50
2018-12-31T16:57:18.656Z,219.70
2018-12-31T16:59:44.907Z,172.57
2018-12-31T17:02:11.069Z,116.13
2018-12-31T17:04:39.171Z,255.33
2018-12-31T17:07:05.323Z,300.40
2018-12-31T17:09:31.592Z,209.43
2018-12-31T17:11:57.809Z,354.40
2018-12-31T17:14:24.084Z,202.60
2018-12-31T17:16:50.248Z,99.20
2018-12-31T17:19:16.431Z,250.03
2018-12-31T17:21:43.103Z,267.50
2018-12-31T17:24:09.267Z,231.33
2018-12-31T17:26:35.451Z,221.77
2018-12-31T17:29:01.600Z,130.40
2018-12-31T17:31:27.758Z,123.97
2018-12-31T17:33:53.967Z,157.13
2018-12-31T17:36:22.140Z,107.17
2018-12-31T17:38:49.062Z,95.87
2018-12-31T17:41:36.248Z,143.70
2018-12-31T17:44:02.408Z,167.43
2018-12-31T17:49:16.348Z,143.63
2018-12-31T17:51:42.511Z,127.67
2018-12-31T17:54:08.673Z,128.70
2018-12-31T17:56:34.879Z,140.10
2018-12-31T17:59:02.949Z,243.53
2018-12-31T18:01:29.103Z,107.30
2018-12-31T18:03:55.296Z,117.37
2018-12-31T18:06:21.455Z,118.77
2018-12-31T18:08:47.620Z,210.03
2018-12-31T18:11:13.921Z,131.97
2018-12-31T18:13:41.978Z,106.10
2018-12-31T18:16:08.138Z,115.90
2018-12-31T18:18:34.325Z,101.53
2018-12-31T18:21:00.492Z,82.27
2018-12-31T18:23:26.653Z,72.70
2018-12-31T18:25:52.850Z,57.90
2018-12-31T18:28:19.106Z,85.63
2018-12-31T18:30:45.347Z,70.53
2018-12-31T18:33:11.682Z,125.97
2018-12-31T18:35:37.839Z,183.40
2018-12-31T18:38:03.997Z,231.43
2018-12-31T18:40:30.286Z,51.70
2018-12-31T18:42:56.448Z,42.97
2018-12-31T18:45:22.807Z,44.90
2018-12-31T18:47:49.039Z,71.93
2018-12-31T18:50:15.292Z,107.03
2018-12-31T18:52:41.454Z,112.77
2018-12-31T18:55:07.655Z,114.00
2018-12-31T18:57:33.812Z,157.63
2018-12-31T19:00:01.868Z,137.13
2018-12-31T19:02:28.074Z,119.47
2018-12-31T19:04:54.237Z,108.90
2018-12-31T19:07:20.397Z,78.63
2018-12-31T19:09:46.586Z,108.13
2018-12-31T19:12:12.852Z,107.83
2018-12-31T19:14:39.007Z,117.20
2018-12-31T19:17:05.196Z,346.30
2018-12-31T19:19:31.346Z,225.60
2018-12-31T19:21:57.512Z,239.83
2018-12-31T19:24:23.688Z,189.40
2018-12-31T19:26:49.838Z,642.97
2018-12-31T19:29:15.988Z,112.73
2018-12-31T19:31:44.293Z,94.93
2018-12-31T19:34:12.139Z,130.07
2018-12-31T19:36:38.294Z,154.90
2018-12-31T19:39:45.918Z,110.37
2018-12-31T19:42:12.097Z,80.47
2018-12-31T19:44:38.257Z,86.87
2018-12-31T19:47:04.557Z,193.17
2018-12-31T19:49:30.723Z,274.27
2018-12-31T19:51:56.883Z,80.60
2018-12-31T19:54:25.064Z,78.97
2018-12-31T19:56:51.225Z,131.30
2018-12-31T19:59:17.375Z,120.33
2018-12-31T20:01:43.575Z,116.23
2018-12-31T20:04:09.741Z,105.27
2018-12-31T20:06:35.914Z,94.80
2018-12-31T20:09:57.762Z,346.33
2018-12-31T20:12:13.473Z,516.87
2018-12-31T20:14:42.443Z,91.77
2018-12-31T20:17:08.767Z,73.67
2018-12-31T20:19:34.930Z,100.63
2018-12-31T20:24:53.740Z,189.73
2018-12-31T20:27:19.901Z,124.03
2018-12-31T20:29:46.072Z,141.10
2018-12-31T20:32:12.268Z,101.33
2018-12-31T20:34:38.441Z,103.33
2018-12-31T20:37:04.596Z,97.63
2018-12-31T20:39:30.890Z,101.10
2018-12-31T20:41:57.054Z,101.37
2018-12-31T20:44:23.216Z,111.83
2018-12-31T20:46:49.414Z,111.30
2018-12-31T20:49:15.582Z,118.47
2018-12-31T20:51:41.757Z,93.17
2018-12-31T20:54:07.977Z,72.93
2018-12-31T20:56:34.142Z,93.53
2018-12-31T20:59:00.401Z,91.47
2018-12-31T21:01:26.797Z,93.93
2018-12-31T21:03:52.933Z,95.27
2018-12-31T21:06:19.088Z,100.50
2018-12-31T21:08:45.272Z,93.60
2018-12-31T21:11:11.440Z,296.97
2018-12-31T21:13:37.595Z,116.87
2018-12-31T21:16:05.487Z,134.83
2018-12-31T21:18:31.843Z,116.63
2018-12-31T21:20:58.022Z,113.80
2018-12-31T21:23:24.293Z,93.00
2018-12-31T21:25:50.452Z,114.83
2018-12-31T21:28:16.613Z,101.10
2018-12-31T21:30:42.814Z,78.30
2018-12-31T21:33:10.867Z,78.77
2018-12-31T21:35:37.027Z,109.83
2018-12-31T21:38:03.326Z,84.47
2018-12-31T21:40:29.490Z,88.43
2018-12-31T21:42:55.654Z,97.63
2018-12-31T21:45:21.969Z,93.73
2018-12-31T21:47:48.229Z,88.30
2018-12-31T21:50:27.844Z,115.53
2018-12-31T21:52:54.014Z,66.80
2018-12-31T21:55:20.165Z,57.77
2018-12-31T21:57:46.362Z,99.67
2018-12-31T22:00:12.512Z,106.63
2018-12-31T22:02:40.575Z,94.57
2018-12-31T22:05:06.761Z,94.83
2018-12-31T22:07:32.914Z,107.83
2018-12-31T22:09:59.077Z,140.47
2018-12-31T22:12:25.276Z,256.30
2018-12-31T22:14:51.428Z,298.73
2018-12-31T22:17:17.583Z,253.60
2018-12-31T22:19:43.781Z,217.20
2018-12-31T22:22:09.944Z,265.40
2018-12-31T22:24:36.199Z,308.10
2018-12-31T22:27:02.488Z,250.93
2018-12-31T22:29:28.649Z,649.57
2018-12-31T22:31:54.809Z,749.00
2018-12-31T22:34:21.202Z,718.33
2018-12-31T22:36:47.351Z,617.30
2018-12-31T22:39:13.505Z,555.83
2018-12-31T22:41:39.698Z,595.33
2018-12-31T22:44:05.855Z,455.77
2018-12-31T22:46:32.003Z,426.43
2018-12-31T22:48:58.398Z,299.60
2018-12-31T22:51:37.910Z,408.80
2018-12-31T22:54:04.098Z,412.07
2018-12-31T22:56:30.254Z,476.00
2018-12-31T22:58:56.428Z,444.10
2018-12-31T23:01:22.733Z,283.50
2018-12-31T23:03:48.888Z,215.07
2018-12-31T23:06:15.041Z,121.80
2018-12-31T23:08:41.255Z,150.93
2018-12-31T23:11:07.413Z,132.93
2018-12-31T23:13:33.567Z,119.20
2018-12-31T23:15:59.757Z,106.63
2018-12-31T23:18:26.109Z,79.33
2018-12-31T23:20:52.276Z,64.77
2018-12-31T23:23:18.597Z,63.87
2018-12-31T23:25:44.756Z,62.10
2018-12-31T23:28:11.800Z,65.10
2018-12-31T23:30:37.999Z,67.63
2018-12-31T23:33:04.279Z,65.10
2018-12-31T23:35:31.313Z,59.97
2018-12-31T23:37:58.632Z,79.10
2018-12-31T23:40:24.790Z,82.80
2018-12-31T23:42:50.949Z,71.40
2018-12-31T23:45:17.136Z,69.20
2018-12-31T23:47:43.293Z,123.83
2018-12-31T23:50:11.344Z,84.73
2018-12-31T23:52:37.547Z,518.73
2018-12-31T23:58:17.533Z,291.27
